sensor_id;sensor_type;location;lat;lon;timestamp;temperature;humidity
36690;DHT22;22676;51.120;3.702;2022-08-21T03:04:02;24.80;49.40
36690;DHT22;22676;51.120;3.702;2022-08-21T03:06:28;24.80;49.40
36690;DHT22;22676;51.120;3.702;2022-08-21T03:08:54;24.80;49.50
36690;DHT22;22676;51.120;3.702;2022-08-21T03:11:20;24.80;49.50
36690;DHT22;22676;51.120;3.702;2022-08-21T03:13:45;24.80;49.50
36690;DHT22;22676;51.120;3.702;2022-08-21T03:16:11;24.80;49.50
36690;DHT22;22676;51.120;3.702;2022-08-21T03:18:37;24.70;49.40
36690;DHT22;22676;51.120;3.702;2022-08-21T03:21:03;24.70;49.40
36690;DHT22;22676;51.120;3.702;2022-08-21T03:23:28;24.70;49.40
36690;DHT22;22676;51.120;3.702;2022-08-21T03:25:55;24.70;49.50
36690;DHT22;22676;51.120;3.702;2022-08-21T04:34:17;24.60;49.60
36690;DHT22;22676;51.120;3.702;2022-08-21T04:37:08;24.60;49.60
36690;DHT22;22676;51.120;3.702;2022-08-21T04:39:59;24.50;49.60
36690;DHT22;22676;51.120;3.702;2022-08-21T04:43:01;24.50;49.60
36690;DHT22;22676;51.120;3.702;2022-08-21T04:45:52;24.60;49.60
36690;DHT22;22676;51.120;3.702;2022-08-21T04:48:43;24.50;49.60
36690;DHT22;22676;51.120;3.702;2022-08-21T04:51:34;24.50;49.60
36690;DHT22;22676;51.120;3.702;2022-08-21T04:54:26;24.60;49.70
36690;DHT22;22676;51.120;3.702;2022-08-21T04:57:17;24.50;49.60
36690;DHT22;22676;51.120;3.702;2022-08-21T05:00:08;24.50;49.60
36690;DHT22;22676;51.120;3.702;2022-08-21T05:02:59;24.50;49.60
36690;DHT22;22676;51.120;3.702;2022-08-21T05:06:08;24.50;49.60
36690;DHT22;22676;51.120;3.702;2022-08-21T05:08:59;24.50;49.60
36690;DHT22;22676;51.120;3.702;2022-08-21T05:11:50;24.50;49.60
36690;DHT22;22676;51.120;3.702;2022-08-21T05:14:41;24.50;49.60
36690;DHT22;22676;51.120;3.702;2022-08-21T05:17:32;24.50;49.70
36690;DHT22;22676;51.120;3.702;2022-08-21T05:20:23;24.50;49.70
36690;DHT22;22676;51.120;3.702;2022-08-21T05:23:14;24.50;49.70
36690;DHT22;22676;51.120;3.702;2022-08-21T05:26:05;24.50;49.70
36690;DHT22;22676;51.120;3.702;2022-08-21T05:28:56;24.50;49.80
36690;DHT22;22676;51.120;3.702;2022-08-21T05:31:47;24.50;49.80
36690;DHT22;22676;51.120;3.702;2022-08-21T05:34:38;24.50;49.70
36690;DHT22;22676;51.120;3.702;2022-08-21T05:37:29;24.50;49.70
36690;DHT22;22676;51.120;3.702;2022-08-21T05:40:20;24.50;49.80
36690;DHT22;22676;51.120;3.702;2022-08-21T05:43:11;24.50;49.80
36690;DHT22;22676;51.120;3.702;2022-08-21T05:46:03;24.50;49.80
36690;DHT22;22676;51.120;3.702;2022-08-21T05:48:53;24.50;49.80
36690;DHT22;22676;51.120;3.702;2022-08-21T05:51:44;24.40;49.70
36690;DHT22;22676;51.120;3.702;2022-08-21T05:54:36;24.40;49.80
36690;DHT22;22676;51.120;3.702;2022-08-21T05:57:27;24.40;49.80
36690;DHT22;22676;51.120;3.702;2022-08-21T06:00:18;24.40;49.80
36690;DHT22;22676;51.120;3.702;2022-08-21T06:03:15;24.50;49.90
36690;DHT22;22676;51.120;3.702;2022-08-21T06:06:25;24.40;49.80
36690;DHT22;22676;51.120;3.702;2022-08-21T06:09:16;24.40;49.90
36690;DHT22;22676;51.120;3.702;2022-08-21T06:12:08;24.40;49.90
36690;DHT22;22676;51.120;3.702;2022-08-21T06:14:59;24.50;49.90
36690;DHT22;22676;51.120;3.702;2022-08-21T06:17:50;24.40;49.90
36690;DHT22;22676;51.120;3.702;2022-08-21T06:20:42;24.40;49.90
36690;DHT22;22676;51.120;3.702;2022-08-21T06:23:33;24.40;50.00
36690;DHT22;22676;51.120;3.702;2022-08-21T06:26:23;24.40;50.20
36690;DHT22;22676;51.120;3.702;2022-08-21T06:29:14;24.30;50.40
36690;DHT22;22676;51.120;3.702;2022-08-21T06:32:05;24.30;50.70
36690;DHT22;22676;51.120;3.702;2022-08-21T06:34:56;24.20;50.70
36690;DHT22;22676;51.120;3.702;2022-08-21T06:37:47;24.20;50.90
36690;DHT22;22676;51.120;3.702;2022-08-21T06:40:37;24.20;51.10
36690;DHT22;22676;51.120;3.702;2022-08-21T06:43:28;24.20;51.40
36690;DHT22;22676;51.120;3.702;2022-08-21T06:46:18;24.10;51.50
36690;DHT22;22676;51.120;3.702;2022-08-21T06:49:09;24.10;51.70
36690;DHT22;22676;51.120;3.702;2022-08-21T06:52:00;24.10;51.90
36690;DHT22;22676;51.120;3.702;2022-08-21T06:54:51;24.10;52.20
36690;DHT22;22676;51.120;3.702;2022-08-21T06:57:41;24.10;53.00
36690;DHT22;22676;51.120;3.702;2022-08-21T07:00:31;24.10;52.50
36690;DHT22;22676;51.120;3.702;2022-08-21T07:03:24;24.00;52.60
36690;DHT22;22676;51.120;3.702;2022-08-21T07:06:14;24.00;52.80
36690;DHT22;22676;51.120;3.702;2022-08-21T07:09:05;24.00;52.90
36690;DHT22;22676;51.120;3.702;2022-08-21T07:11:55;24.00;53.00
36690;DHT22;22676;51.120;3.702;2022-08-21T07:14:46;24.00;53.10
36690;DHT22;22676;51.120;3.702;2022-08-21T07:17:36;24.00;53.10
36690;DHT22;22676;51.120;3.702;2022-08-21T07:20:27;24.00;53.30
36690;DHT22;22676;51.120;3.702;2022-08-21T07:23:23;24.00;53.50
36690;DHT22;22676;51.120;3.702;2022-08-21T07:26:15;24.00;53.70
36690;DHT22;22676;51.120;3.702;2022-08-21T07:29:06;24.00;54.00
36690;DHT22;22676;51.120;3.702;2022-08-21T07:35:06;23.90;54.40
36690;DHT22;22676;51.120;3.702;2022-08-21T07:37:57;23.90;54.50
36690;DHT22;22676;51.120;3.702;2022-08-21T07:40:48;23.80;54.60
36690;DHT22;22676;51.120;3.702;2022-08-21T07:43:39;23.80;54.80
36690;DHT22;22676;51.120;3.702;2022-08-21T07:46:30;23.80;55.00
36690;DHT22;22676;51.120;3.702;2022-08-21T07:49:21;23.80;55.10
36690;DHT22;22676;51.120;3.702;2022-08-21T07:52:12;23.70;55.10
36690;DHT22;22676;51.120;3.702;2022-08-21T07:55:03;23.70;55.20
36690;DHT22;22676;51.120;3.702;2022-08-21T07:57:54;23.70;55.50
36690;DHT22;22676;51.120;3.702;2022-08-21T08:00:45;23.70;55.90
36690;DHT22;22676;51.120;3.702;2022-08-21T14:34:04;25.80;49.70
36690;DHT22;22676;51.120;3.702;2022-08-21T14:36:30;25.90;49.80
36690;DHT22;22676;51.120;3.702;2022-08-21T14:38:55;25.80;49.80
36690;DHT22;22676;51.120;3.702;2022-08-21T14:41:22;25.80;49.80
36690;DHT22;22676;51.120;3.702;2022-08-21T14:43:48;25.90;49.80
36690;DHT22;22676;51.120;3.702;2022-08-21T14:46:16;25.90;49.80
36690;DHT22;22676;51.120;3.702;2022-08-21T14:48:44;25.90;49.80
36690;DHT22;22676;51.120;3.702;2022-08-21T14:51:12;25.90;49.70
36690;DHT22;22676;51.120;3.702;2022-08-21T14:53:38;25.90;49.70
36690;DHT22;22676;51.120;3.702;2022-08-21T14:56:04;25.90;49.70
36690;DHT22;22676;51.120;3.702;2022-08-21T14:58:33;26.00;49.70
36690;DHT22;22676;51.120;3.702;2022-08-21T15:00:59;26.00;49.70
36690;DHT22;22676;51.120;3.702;2022-08-21T15:03:28;26.00;49.70
36690;DHT22;22676;51.120;3.702;2022-08-21T15:05:54;26.00;49.70
36690;DHT22;22676;51.120;3.702;2022-08-21T15:08:19;25.90;49.60
36690;DHT22;22676;51.120;3.702;2022-08-21T15:10:45;26.00;49.70
36690;DHT22;22676;51.120;3.702;2022-08-21T15:13:11;26.00;49.60
36690;DHT22;22676;51.120;3.702;2022-08-21T15:15:41;26.00;49.50
36690;DHT22;22676;51.120;3.702;2022-08-21T15:18:07;26.00;49.40
36690;DHT22;22676;51.120;3.702;2022-08-21T15:20:33;26.00;49.50
36690;DHT22;22676;51.120;3.702;2022-08-21T15:22:58;26.00;49.50
36690;DHT22;22676;51.120;3.702;2022-08-21T15:25:24;26.00;49.50
36690;DHT22;22676;51.120;3.702;2022-08-21T15:27:49;26.00;49.60
36690;DHT22;22676;51.120;3.702;2022-08-21T15:30:15;26.00;49.60
36690;DHT22;22676;51.120;3.702;2022-08-21T15:32:41;26.00;49.60
36690;DHT22;22676;51.120;3.702;2022-08-21T15:35:07;26.00;49.70
36690;DHT22;22676;51.120;3.702;2022-08-21T15:37:33;26.00;49.70
36690;DHT22;22676;51.120;3.702;2022-08-21T15:39:58;26.10;49.70
36690;DHT22;22676;51.120;3.702;2022-08-21T15:42:24;26.10;49.70
36690;DHT22;22676;51.120;3.702;2022-08-21T15:44:51;26.10;49.60
36690;DHT22;22676;51.120;3.702;2022-08-21T15:47:18;26.10;49.50
36690;DHT22;22676;51.120;3.702;2022-08-21T15:49:44;26.10;49.60
36690;DHT22;22676;51.120;3.702;2022-08-21T15:52:14;26.10;49.60
36690;DHT22;22676;51.120;3.702;2022-08-21T15:54:40;26.10;49.60
36690;DHT22;22676;51.120;3.702;2022-08-21T15:57:06;26.20;49.60
36690;DHT22;22676;51.120;3.702;2022-08-21T15:59:32;26.20;49.60
36690;DHT22;22676;51.120;3.702;2022-08-21T16:02:04;26.20;49.60
36690;DHT22;22676;51.120;3.702;2022-08-21T16:04:30;26.20;49.60
36690;DHT22;22676;51.120;3.702;2022-08-21T16:06:55;26.20;49.50
36690;DHT22;22676;51.120;3.702;2022-08-21T16:09:21;26.20;49.50
36690;DHT22;22676;51.120;3.702;2022-08-21T16:11:47;26.20;49.50
36690;DHT22;22676;51.120;3.702;2022-08-21T16:14:41;26.20;49.50
36690;DHT22;22676;51.120;3.702;2022-08-21T16:42:30;26.20;48.40
36690;DHT22;22676;51.120;3.702;2022-08-21T16:45:21;26.20;48.40
36690;DHT22;22676;51.120;3.702;2022-08-21T16:48:12;26.20;48.60
36690;DHT22;22676;51.120;3.702;2022-08-21T16:51:02;26.20;48.60
36690;DHT22;22676;51.120;3.702;2022-08-21T16:53:53;26.20;48.60
36690;DHT22;22676;51.120;3.702;2022-08-21T16:56:44;26.20;48.80
36690;DHT22;22676;51.120;3.702;2022-08-21T16:59:35;26.20;49.00
36690;DHT22;22676;51.120;3.702;2022-08-21T17:02:31;26.20;49.10
36690;DHT22;22676;51.120;3.702;2022-08-21T17:05:42;26.20;49.00
36690;DHT22;22676;51.120;3.702;2022-08-21T17:08:32;26.10;48.80
36690;DHT22;22676;51.120;3.702;2022-08-21T17:11:36;26.10;48.80
36690;DHT22;22676;51.120;3.702;2022-08-21T17:14:27;26.20;48.80
36690;DHT22;22676;51.120;3.702;2022-08-21T17:17:18;26.20;49.10
36690;DHT22;22676;51.120;3.702;2022-08-21T17:20:09;26.20;49.00
36690;DHT22;22676;51.120;3.702;2022-08-21T17:23:00;26.20;49.00
36690;DHT22;22676;51.120;3.702;2022-08-21T17:25:52;26.20;48.90
36690;DHT22;22676;51.120;3.702;2022-08-21T17:28:42;26.20;48.90
36690;DHT22;22676;51.120;3.702;2022-08-21T17:31:34;26.20;48.90
36690;DHT22;22676;51.120;3.702;2022-08-21T17:34:26;26.30;48.90
36690;DHT22;22676;51.120;3.702;2022-08-21T17:37:16;26.20;48.80
36690;DHT22;22676;51.120;3.702;2022-08-21T17:40:08;26.30;48.80
36690;DHT22;22676;51.120;3.702;2022-08-21T17:42:59;26.20;48.70
36690;DHT22;22676;51.120;3.702;2022-08-21T17:45:51;26.30;48.80
36690;DHT22;22676;51.120;3.702;2022-08-21T17:48:41;26.30;48.80
36690;DHT22;22676;51.120;3.702;2022-08-21T17:51:32;26.30;48.80
36690;DHT22;22676;51.120;3.702;2022-08-21T17:54:23;26.30;48.80
36690;DHT22;22676;51.120;3.702;2022-08-21T17:57:18;26.30;48.80
36690;DHT22;22676;51.120;3.702;2022-08-21T18:00:11;26.30;48.80
36690;DHT22;22676;51.120;3.702;2022-08-21T18:03:06;26.30;48.80
36690;DHT22;22676;51.120;3.702;2022-08-21T18:06:15;26.30;48.80
36690;DHT22;22676;51.120;3.702;2022-08-21T18:09:07;26.20;48.70
36690;DHT22;22676;51.120;3.702;2022-08-21T18:11:58;26.20;48.70
36690;DHT22;22676;51.120;3.702;2022-08-21T18:14:48;26.20;48.80
36690;DHT22;22676;51.120;3.702;2022-08-21T18:17:41;26.10;48.80
36690;DHT22;22676;51.120;3.702;2022-08-21T18:20:31;26.10;48.90
36690;DHT22;22676;51.120;3.702;2022-08-21T18:23:23;26.10;49.00
36690;DHT22;22676;51.120;3.702;2022-08-21T18:26:14;26.10;49.10
36690;DHT22;22676;51.120;3.702;2022-08-21T18:29:06;26.00;49.10
36690;DHT22;22676;51.120;3.702;2022-08-21T18:31:57;26.00;49.10
36690;DHT22;22676;51.120;3.702;2022-08-21T18:47:41;26.00;49.70
36690;DHT22;22676;51.120;3.702;2022-08-21T18:50:33;25.90;49.80
36690;DHT22;22676;51.120;3.702;2022-08-21T18:53:23;25.80;50.00
36690;DHT22;22676;51.120;3.702;2022-08-21T18:56:14;25.80;50.20
36690;DHT22;22676;51.120;3.702;2022-08-21T18:59:05;25.70;50.30
36690;DHT22;22676;51.120;3.702;2022-08-21T19:01:56;25.70;50.50
36690;DHT22;22676;51.120;3.702;2022-08-21T20:04:21;24.90;53.30
36690;DHT22;22676;51.120;3.702;2022-08-21T20:07:12;24.90;53.40
36690;DHT22;22676;51.120;3.702;2022-08-21T20:10:04;24.90;53.60
36690;DHT22;22676;51.120;3.702;2022-08-21T20:12:54;24.90;53.70
36690;DHT22;22676;51.120;3.702;2022-08-21T20:15:44;24.90;53.80
36690;DHT22;22676;51.120;3.702;2022-08-21T20:18:36;25.00;53.80
36690;DHT22;22676;51.120;3.702;2022-08-21T20:21:27;25.00;53.60
36690;DHT22;22676;51.120;3.702;2022-08-21T20:24:17;25.00;53.70
36690;DHT22;22676;51.120;3.702;2022-08-21T20:27:08;25.00;53.70
36690;DHT22;22676;51.120;3.702;2022-08-21T20:29:59;25.00;53.80
36690;DHT22;22676;51.120;3.702;2022-08-21T20:32:50;25.00;53.90
36690;DHT22;22676;51.120;3.702;2022-08-21T20:35:42;25.00;54.20
36690;DHT22;22676;51.120;3.702;2022-08-21T20:38:32;25.00;54.50
36690;DHT22;22676;51.120;3.702;2022-08-21T20:41:24;25.00;54.40
36690;DHT22;22676;51.120;3.702;2022-08-21T20:44:15;25.00;54.50
36690;DHT22;22676;51.120;3.702;2022-08-21T20:47:06;25.00;54.50
36690;DHT22;22676;51.120;3.702;2022-08-21T20:49:58;25.00;54.70
36690;DHT22;22676;51.120;3.702;2022-08-21T20:52:54;25.00;55.00
36690;DHT22;22676;51.120;3.702;2022-08-21T20:55:47;25.00;55.20
36690;DHT22;22676;51.120;3.702;2022-08-21T20:58:41;25.00;55.20
36690;DHT22;22676;51.120;3.702;2022-08-21T21:01:34;24.90;55.20
36690;DHT22;22676;51.120;3.702;2022-08-21T21:38:29;25.00;54.00
